createdAt,value
2018-07-14T00:01:25.480Z,4.50
2018-07-14T00:06:16.359Z,5.30
2018-07-14T00:11:07.311Z,5.03
2018-07-14T00:15:58.211Z,4.90
2018-07-14T00:20:49.103Z,5.17
2018-07-14T00:25:40.060Z,5.37
2018-07-14T00:30:31.023Z,4.40
2018-07-14T00:35:22.666Z,4.90
2018-07-14T00:40:14.311Z,6.03
2018-07-14T00:45:05.194Z,5.00
2018-07-14T00:49:56.087Z,5.23
2018-07-14T00:54:46.980Z,8.30
2018-07-14T00:59:37.889Z,5.00
2018-07-14T01:04:28.830Z,5.80
2018-07-14T01:09:19.736Z,5.10
2018-07-14T01:14:10.669Z,5.17
2018-07-14T01:19:02.298Z,5.03
2018-07-14T01:23:53.229Z,5.73
2018-07-14T01:28:44.141Z,5.83
2018-07-14T01:33:35.031Z,5.40
2018-07-14T01:38:25.961Z,5.87
2018-07-14T01:43:16.860Z,5.93
2018-07-14T01:48:07.759Z,5.97
2018-07-14T01:52:59.394Z,5.67
2018-07-14T01:57:51.065Z,6.37
2018-07-14T02:02:41.981Z,5.90
2018-07-14T02:07:32.897Z,6.50
2018-07-14T02:12:23.803Z,6.40
2018-07-14T02:17:14.717Z,7.00
2018-07-14T02:22:06.382Z,6.57
2018-07-14T02:27:12.290Z,7.47
2018-07-14T02:32:03.198Z,7.07
2018-07-14T02:36:54.105Z,6.83
2018-07-14T02:41:45.018Z,6.53
2018-07-14T02:46:35.911Z,6.00
2018-07-14T02:51:26.807Z,6.83
2018-07-14T02:56:18.446Z,7.13
2018-07-14T03:01:10.087Z,6.70
2018-07-14T03:06:00.986Z,6.00
2018-07-14T03:10:52.644Z,11.70
2018-07-14T03:15:43.550Z,6.80
2018-07-14T03:20:35.218Z,6.73
2018-07-14T03:25:26.113Z,7.40
2018-07-14T03:30:17.025Z,7.07
2018-07-14T03:35:08.672Z,7.20
2018-07-14T03:39:59.577Z,6.97
2018-07-14T03:44:51.221Z,6.90
2018-07-14T03:49:43.532Z,7.97
2018-07-14T03:54:34.427Z,7.57
2018-07-14T03:59:25.319Z,6.80
2018-07-14T04:04:16.254Z,7.20
2018-07-14T04:09:07.223Z,6.90
2018-07-14T04:14:13.085Z,5.90
2018-07-14T04:19:03.974Z,7.73
2018-07-14T04:23:54.866Z,7.37
2018-07-14T04:28:45.755Z,7.57
2018-07-14T04:33:37.463Z,7.63
2018-07-14T04:38:28.372Z,7.30
2018-07-14T04:43:19.271Z,7.07
2018-07-14T04:48:10.246Z,7.80
2018-07-14T04:53:02.172Z,8.20
2018-07-14T04:57:53.037Z,7.40
2018-07-14T05:02:43.944Z,7.43
2018-07-14T05:07:34.898Z,7.27
2018-07-14T05:12:25.802Z,8.10
2018-07-14T05:17:16.712Z,8.20
2018-07-14T05:22:07.625Z,7.47
2018-07-14T05:26:58.556Z,7.63
2018-07-14T05:31:49.465Z,8.40
2018-07-14T05:36:40.380Z,7.20
2018-07-14T05:41:32.019Z,8.00
2018-07-14T05:46:22.957Z,7.87
2018-07-14T05:51:13.871Z,8.23
2018-07-14T05:56:04.761Z,10.20
2018-07-14T06:00:56.416Z,9.73
2018-07-14T06:05:47.385Z,7.63
2018-07-14T06:10:38.287Z,7.07
2018-07-14T06:15:29.187Z,7.30
2018-07-14T06:20:20.152Z,7.23
2018-07-14T06:25:11.046Z,7.03
2018-07-14T06:30:02.709Z,8.50
2018-07-14T06:34:54.356Z,8.57
2018-07-14T06:39:46.029Z,9.93
2018-07-14T06:44:36.975Z,6.97
2018-07-14T06:49:29.346Z,7.73
2018-07-14T06:54:20.324Z,6.70
2018-07-14T06:59:11.159Z,6.50
2018-07-14T07:04:02.060Z,7.77
2018-07-14T07:08:53.012Z,8.30
2018-07-14T07:13:43.926Z,7.60
2018-07-14T07:18:34.819Z,7.77
2018-07-14T07:23:25.795Z,7.10
2018-07-14T07:28:17.431Z,7.83
2018-07-14T07:33:09.060Z,7.00
2018-07-14T07:38:00.700Z,7.17
2018-07-14T07:42:52.350Z,7.47
2018-07-14T07:47:44.029Z,6.77
2018-07-14T07:52:34.945Z,5.30
2018-07-14T07:57:26.001Z,5.50
2018-07-14T08:02:17.653Z,5.93
2018-07-14T08:07:09.293Z,5.70
2018-07-14T08:12:00.203Z,5.80
2018-07-14T08:16:51.845Z,5.93
2018-07-14T08:21:43.497Z,5.97
2018-07-14T08:26:34.470Z,6.53
2018-07-14T08:31:25.374Z,5.93
2018-07-14T08:36:16.328Z,5.80
2018-07-14T08:41:07.945Z,7.40
2018-07-14T08:45:58.838Z,6.60
2018-07-14T08:50:49.736Z,7.57
2018-07-14T08:55:40.655Z,6.67
2018-07-14T09:00:31.559Z,7.10
2018-07-14T09:05:22.460Z,6.93
2018-07-14T09:10:14.143Z,7.57
2018-07-14T09:15:05.054Z,6.57
2018-07-14T09:19:55.995Z,7.33
2018-07-14T09:24:46.950Z,7.03
2018-07-14T09:29:37.865Z,6.83
2018-07-14T09:34:29.530Z,7.47
2018-07-14T09:39:20.446Z,6.83
2018-07-14T09:44:11.428Z,7.20
2018-07-14T09:49:03.137Z,6.70
2018-07-14T09:53:54.028Z,6.90
2018-07-14T09:58:44.922Z,6.17
2018-07-14T10:03:36.568Z,5.73
2018-07-14T10:08:27.464Z,5.70
2018-07-14T10:13:19.148Z,6.63
2018-07-14T10:18:10.030Z,7.90
2018-07-14T10:23:01.718Z,15.80
2018-07-14T10:27:52.632Z,13.13
2018-07-14T10:32:43.540Z,12.90
2018-07-14T10:37:34.478Z,6.73
2018-07-14T10:42:25.441Z,8.50
2018-07-14T10:47:16.287Z,11.17
2018-07-14T10:52:07.193Z,6.70
2018-07-14T10:56:58.087Z,6.47
2018-07-14T11:01:49.718Z,6.93
2018-07-14T11:06:41.374Z,5.90
2018-07-14T11:11:32.282Z,6.30
2018-07-14T11:16:23.198Z,6.73
2018-07-14T11:21:14.849Z,6.20
2018-07-14T11:26:05.750Z,6.07
2018-07-14T11:30:57.402Z,6.37
2018-07-14T11:35:48.288Z,6.07
2018-07-14T11:40:39.941Z,7.03
2018-07-14T11:45:30.837Z,6.33
2018-07-14T11:50:21.765Z,5.70
2018-07-14T11:55:12.636Z,5.40
2018-07-14T12:00:03.541Z,6.43
2018-07-14T12:04:54.430Z,5.60
2018-07-14T12:09:46.093Z,5.43
2018-07-14T12:14:36.990Z,5.77
2018-07-14T12:19:27.878Z,5.17
2018-07-14T12:24:18.798Z,4.90
2018-07-14T12:29:09.690Z,5.97
2018-07-14T12:34:00.601Z,5.73
2018-07-14T12:38:51.498Z,5.13
2018-07-14T12:43:42.409Z,6.00
2018-07-14T12:48:33.309Z,4.77
2018-07-14T12:53:24.955Z,4.80
2018-07-14T12:58:15.862Z,5.43
2018-07-14T13:03:07.517Z,5.60
2018-07-14T13:07:58.437Z,4.83
2018-07-14T13:12:49.335Z,4.70
2018-07-14T13:17:40.979Z,5.13
2018-07-14T13:22:31.907Z,5.07
2018-07-14T13:27:22.837Z,4.90
2018-07-14T13:32:13.753Z,4.50
2018-07-14T13:37:04.662Z,4.73
2018-07-14T13:41:55.590Z,4.37
2018-07-14T13:46:46.509Z,4.20
2018-07-14T13:51:37.417Z,4.03
2018-07-14T13:56:28.338Z,3.80
2018-07-14T14:01:19.256Z,4.43
2018-07-14T14:06:10.182Z,3.80
2018-07-14T14:11:01.110Z,3.87
2018-07-14T14:15:52.002Z,4.20
2018-07-14T14:20:42.910Z,3.33
2018-07-14T14:25:34.568Z,3.20
2018-07-14T14:30:25.509Z,3.57
2018-07-14T14:35:16.399Z,3.00
2018-07-14T14:40:07.300Z,3.07
2018-07-14T14:44:59.049Z,5.90
2018-07-14T14:49:49.976Z,2.97
2018-07-14T14:54:40.881Z,3.40
2018-07-14T14:59:31.803Z,3.57
2018-07-14T15:04:22.736Z,5.03
2018-07-14T15:09:13.657Z,3.20
2018-07-14T15:14:04.569Z,3.37
2018-07-14T15:18:55.490Z,2.77
2018-07-14T15:23:46.393Z,2.60
2018-07-14T15:28:37.305Z,3.17
2018-07-14T15:33:28.951Z,3.03
2018-07-14T15:38:19.879Z,3.10
2018-07-14T15:43:10.790Z,3.27
2018-07-14T15:48:01.709Z,2.67
2018-07-14T15:58:20.403Z,3.20
2018-07-14T16:03:11.403Z,3.27
2018-07-14T16:08:03.082Z,2.77
2018-07-14T16:12:53.952Z,2.70
2018-07-14T16:17:44.852Z,2.87
2018-07-14T16:22:35.761Z,2.20
2018-07-14T16:27:26.648Z,2.77
2018-07-14T16:37:21.640Z,2.77
2018-07-14T16:42:12.535Z,2.90
2018-07-14T16:47:03.498Z,2.93
2018-07-14T16:51:54.398Z,2.73
2018-07-14T16:56:45.307Z,2.87
2018-07-14T17:01:36.195Z,2.80
2018-07-14T17:06:27.839Z,2.83
2018-07-14T17:11:19.759Z,3.03
2018-07-14T17:16:10.644Z,2.50
2018-07-14T17:21:01.540Z,2.00
2018-07-14T17:25:52.433Z,2.40
2018-07-14T17:30:44.083Z,2.37
2018-07-14T17:35:35.015Z,2.67
2018-07-14T17:40:25.895Z,2.47
2018-07-14T17:45:17.520Z,3.13
2018-07-14T17:50:08.399Z,2.67
2018-07-14T17:54:59.332Z,2.40
2018-07-14T17:59:50.305Z,2.50
2018-07-14T18:04:41.157Z,3.33
2018-07-14T18:09:32.040Z,2.73
2018-07-14T18:14:22.939Z,2.90
2018-07-14T18:19:14.570Z,2.77
2018-07-14T18:24:06.271Z,2.50
2018-07-14T18:28:57.170Z,2.60
2018-07-14T18:33:48.083Z,2.80
2018-07-14T18:38:38.973Z,2.70
2018-07-14T18:43:30.599Z,2.90
2018-07-14T18:48:22.239Z,2.53
2018-07-14T18:53:14.492Z,3.00
2018-07-14T18:58:05.565Z,2.27
2018-07-14T19:02:56.560Z,2.87
2018-07-14T19:07:47.423Z,2.40
2018-07-14T19:12:38.420Z,2.40
2018-07-14T19:17:29.349Z,2.30
2018-07-14T19:22:20.272Z,3.37
2018-07-14T19:27:11.165Z,2.63
2018-07-14T19:32:02.092Z,2.67
2018-07-14T19:36:53.754Z,2.27
2018-07-14T19:41:45.476Z,2.53
2018-07-14T19:46:36.365Z,2.57
2018-07-14T19:51:27.304Z,2.57
2018-07-14T19:56:18.988Z,2.30
2018-07-14T20:01:09.848Z,2.57
2018-07-14T20:06:00.804Z,2.53
2018-07-14T20:10:51.695Z,2.60
2018-07-14T20:15:42.627Z,2.23
2018-07-14T20:20:33.524Z,2.10
2018-07-14T20:25:39.412Z,2.97
2018-07-14T20:30:30.476Z,2.30
2018-07-14T20:35:22.119Z,2.70
2018-07-14T20:40:13.092Z,2.57
2018-07-14T20:45:03.942Z,2.67
2018-07-14T20:49:55.629Z,2.70
2018-07-14T20:54:46.511Z,2.50
2018-07-14T20:59:37.461Z,1.90
2018-07-14T21:04:28.408Z,2.50
2018-07-14T21:09:19.420Z,2.60
2018-07-14T21:14:10.433Z,2.77
2018-07-14T21:19:02.112Z,2.90
2018-07-14T21:23:53.810Z,2.43
2018-07-14T21:28:45.540Z,2.03
2018-07-14T21:33:36.465Z,2.40
2018-07-14T21:38:27.388Z,2.20
2018-07-14T21:43:18.299Z,3.10
2018-07-14T21:48:09.211Z,2.50
2018-07-14T21:53:00.978Z,2.70
2018-07-14T21:57:51.978Z,2.93
2018-07-14T22:02:43.713Z,2.00
2018-07-14T22:07:34.644Z,4.57
2018-07-14T22:12:25.932Z,2.67
2018-07-14T22:17:16.883Z,2.67
2018-07-14T22:22:07.788Z,3.23
2018-07-14T22:26:58.724Z,2.47
2018-07-14T22:31:49.620Z,2.67
2018-07-14T22:36:40.508Z,2.70
2018-07-14T22:41:31.486Z,3.03
2018-07-14T22:46:22.390Z,3.10
2018-07-14T22:51:13.294Z,10.20
2018-07-14T22:56:04.221Z,2.97
2018-07-14T23:05:52.819Z,4.10
2018-07-14T23:10:43.726Z,3.00
2018-07-14T23:15:34.668Z,2.93
2018-07-14T23:20:25.556Z,3.03
2018-07-14T23:25:16.499Z,3.10
2018-07-14T23:30:07.411Z,3.30
2018-07-14T23:34:58.371Z,3.10
2018-07-14T23:39:49.996Z,3.00
2018-07-14T23:44:40.991Z,3.27
2018-07-14T23:49:31.901Z,3.07
2018-07-14T23:54:22.827Z,3.67
2018-07-14T23:59:13.716Z,2.73
